Time;durP1;ratioP1;P1;durP2;ratioP2;P2;SDS_P1;SDS_P2;PMS_P1;PMS_P2;Temp;Humidity;BMP_temperature;BMP_pressure;BME280_temperature;BME280_humidity;BME280_pressure;Samples;Min_cycle;Max_cycle;Signal;HPM_P1;HPM_P2
2023/12/02 00:02:05;;;;;;;;;;;;;;;-8.56;53.19;94413.38;5070776;28;19928;-77
2023/12/02 00:04:31;;;;;;;;;;;;;;;-7.53;56.25;94410.66;5066397;28;19993;-77
2023/12/02 00:06:56;;;;;;;;;;;;;;;-7.55;51.72;94412.50;5073511;28;20425;-78
2023/12/02 00:09:21;;;;;;;;;;;;;;;-8.12;51.39;94414.22;5074819;28;19959;-77
2023/12/02 00:11:50;;;;;;;;;;;;;;;-7.78;58.54;94417.34;5066720;28;20474;-77
2023/12/02 00:14:15;;;;;;;;;;;;;;;-8.47;59.54;94425.72;5075102;28;19924;-76
2023/12/02 00:16:40;;;;;;;;;;;;;;;-8.25;55.16;94421.88;5063785;28;19970;-76
2023/12/02 00:19:06;;;;;;;;;;;;;;;-8.36;53.17;94422.50;5073838;28;19931;-77
2023/12/02 00:21:31;;;;;;;;;;;;;;;-8.76;53.07;94428.28;5067888;28;19955;-77
2023/12/02 00:23:56;;;;;;;;;;;;;;;-8.59;54.76;94431.63;5048613;28;20459;-76
2023/12/02 00:26:21;;;;;;;;;;;;;;;-8.61;55.70;94436.03;5070394;28;19920;-76
2023/12/02 00:28:47;;;;;;;;;;;;;;;-7.09;69.18;94438.13;5069349;28;19916;-77
2023/12/02 00:31:12;;;;;;;;;;;;;;;-6.21;70.17;94436.75;5055602;28;19925;-77
2023/12/02 00:33:37;;;;;;;;;;;;;;;-5.68;70.04;94437.53;5067142;28;19932;-76
2023/12/02 00:36:02;;;;;;;;;;;;;;;-5.24;66.08;94437.94;5067451;28;20489;-77
2023/12/02 00:38:28;;;;;;;;;;;;;;;-5.18;58.41;94434.06;5073567;28;19959;-77
2023/12/02 00:40:53;;;;;;;;;;;;;;;-5.73;54.51;94438.69;5084260;28;19942;-76
2023/12/02 00:43:18;;;;;;;;;;;;;;;-5.36;58.12;94427.47;5069245;28;19952;-78
2023/12/02 00:45:43;;;;;;;;;;;;;;;-5.23;58.08;94432.63;5071914;28;20168;-76
2023/12/02 00:48:09;;;;;;;;;;;;;;;-4.67;66.49;94435.59;5070622;28;19927;-78
2023/12/02 00:50:34;;;;;;;;;;;;;;;-4.77;54.88;94432.00;5071484;28;19977;-77
2023/12/02 00:52:59;;;;;;;;;;;;;;;-4.63;57.24;94429.25;5071634;28;19931;-77
2023/12/02 00:55:24;;;;;;;;;;;;;;;-4.43;65.51;94426.94;5074623;28;20558;-77
2023/12/02 00:57:50;;;;;;;;;;;;;;;-4.26;62.60;94423.06;5075367;28;20513;-75
2023/12/02 01:00:15;;;;;;;;;;;;;;;-4.23;58.70;94422.00;5087032;28;20037;-77
2023/12/02 01:02:41;;;;;;;;;;;;;;;-4.19;61.27;94423.44;5067463;28;20350;-78
2023/12/02 01:05:06;;;;;;;;;;;;;;;-4.07;63.62;94424.28;5073092;28;20006;-76
2023/12/02 01:07:31;;;;;;;;;;;;;;;-4.14;63.46;94423.94;5069872;28;19931;-77
2023/12/02 01:09:57;;;;;;;;;;;;;;;-4.40;63.10;94418.91;5072935;28;19961;-77
2023/12/02 01:12:22;;;;;;;;;;;;;;;-4.30;65.49;94419.88;5059415;28;19920;-75
2023/12/02 01:14:47;;;;;;;;;;;;;;;-4.44;54.24;94404.50;5065728;28;19921;-76
2023/12/02 01:17:12;;;;;;;;;;;;;;;-4.34;55.83;94415.88;5068921;28;20312;-77
2023/12/02 01:19:38;;;;;;;;;;;;;;;-4.32;60.28;94413.97;5059424;28;19978;-77
2023/12/02 01:22:03;;;;;;;;;;;;;;;-4.26;62.29;94428.28;5057760;28;19985;-77
2023/12/02 01:24:29;;;;;;;;;;;;;;;-4.68;49.88;94424.38;5064252;28;19925;-76
2023/12/02 01:26:54;;;;;;;;;;;;;;;-4.50;56.63;94434.34;5073221;28;19920;-75
2023/12/02 01:29:19;;;;;;;;;;;;;;;-4.80;54.85;94430.47;5078380;28;20421;-77
2023/12/02 01:31:44;;;;;;;;;;;;;;;-4.61;58.60;94432.56;5071605;28;20011;-77
2023/12/02 01:34:10;;;;;;;;;;;;;;;-5.02;61.16;94439.00;5058734;28;20534;-76
2023/12/02 01:36:35;;;;;;;;;;;;;;;-4.48;63.27;94439.44;5059290;28;20027;-77
2023/12/02 01:39:00;;;;;;;;;;;;;;;-4.58;54.90;94440.09;5073142;28;19951;-75
2023/12/02 01:41:25;;;;;;;;;;;;;;;-5.14;56.10;94448.47;5069836;28;20091;-76
2023/12/02 01:43:51;;;;;;;;;;;;;;;-4.78;64.56;94449.38;5068938;28;19924;-77
2023/12/02 01:46:16;;;;;;;;;;;;;;;-4.44;61.17;94451.25;5077171;28;20694;-76
2023/12/02 01:48:41;;;;;;;;;;;;;;;-4.34;58.61;94446.22;5069189;28;20047;-77
2023/12/02 01:51:07;;;;;;;;;;;;;;;-4.42;54.00;94449.38;5057158;28;19969;-75
2023/12/02 01:53:32;;;;;;;;;;;;;;;-4.41;63.62;94440.66;5067396;28;19931;-76
2023/12/02 01:55:58;;;;;;;;;;;;;;;-4.47;61.41;94446.28;5074291;28;19924;-76
2023/12/02 01:58:23;;;;;;;;;;;;;;;-4.33;64.33;94453.06;5071467;28;20381;-77
2023/12/02 02:00:48;;;;;;;;;;;;;;;-4.26;61.75;94449.06;5064218;28;19923;-77
2023/12/02 02:03:13;;;;;;;;;;;;;;;-4.03;64.11;94454.31;5065554;28;20008;-77
2023/12/02 02:05:39;;;;;;;;;;;;;;;-4.10;57.65;94445.31;5069437;28;20436;-76
2023/12/02 02:08:04;;;;;;;;;;;;;;;-4.22;64.79;94455.69;5076986;28;20015;-76
2023/12/02 02:10:29;;;;;;;;;;;;;;;-4.13;64.21;94446.38;5065439;28;20566;-76
2023/12/02 02:12:54;;;;;;;;;;;;;;;-3.96;65.19;94450.31;5067613;28;20113;-78
2023/12/02 02:15:20;;;;;;;;;;;;;;;-4.00;59.05;94448.03;5075680;28;20095;-74
2023/12/02 02:17:45;;;;;;;;;;;;;;;-4.07;64.02;94452.88;5073294;28;20581;-77
2023/12/02 02:20:10;;;;;;;;;;;;;;;-4.22;59.10;94454.84;5085840;28;19971;-77
2023/12/02 02:22:36;;;;;;;;;;;;;;;-4.28;60.85;94458.72;5076697;28;19928;-76
2023/12/02 02:25:01;;;;;;;;;;;;;;;-4.04;59.17;94468.25;5091330;28;19925;-75
2023/12/02 02:27:26;;;;;;;;;;;;;;;-3.98;64.86;94462.56;5077635;28;20424;-77
2023/12/02 02:29:51;;;;;;;;;;;;;;;-4.61;49.53;94463.75;5062912;28;19924;-78
2023/12/02 02:32:17;;;;;;;;;;;;;;;-4.34;56.35;94470.44;5058067;28;20094;-76
2023/12/02 02:34:42;;;;;;;;;;;;;;;-4.73;49.73;94472.41;5070211;28;19920;-76
2023/12/02 02:37:08;;;;;;;;;;;;;;;-5.11;60.22;94475.06;5058740;28;19916;-76
2023/12/02 02:39:33;;;;;;;;;;;;;;;-4.66;64.79;94476.22;5058461;28;19931;-76
2023/12/02 02:41:58;;;;;;;;;;;;;;;-4.38;63.13;94473.38;5074301;28;19936;-77
2023/12/02 02:44:24;;;;;;;;;;;;;;;-4.27;55.87;94467.38;5061144;28;20015;-76
2023/12/02 02:46:49;;;;;;;;;;;;;;;-4.04;66.43;94476.88;5066230;28;20396;-75
2023/12/02 02:49:14;;;;;;;;;;;;;;;-4.27;63.92;94480.38;5056913;28;19921;-77
2023/12/02 02:51:39;;;;;;;;;;;;;;;-4.96;54.35;94483.50;5076750;28;20042;-77
2023/12/02 02:54:05;;;;;;;;;;;;;;;-5.80;66.51;94488.47;5075024;28;19931;-77
2023/12/02 02:56:30;;;;;;;;;;;;;;;-7.66;54.73;94493.31;5069336;28;19920;-76
2023/12/02 02:58:55;;;;;;;;;;;;;;;-6.50;54.17;94481.78;5066686;28;20023;-76
2023/12/02 03:01:20;;;;;;;;;;;;;;;-6.12;53.23;94477.59;5067204;28;19960;-77
2023/12/02 03:03:45;;;;;;;;;;;;;;;-6.18;61.17;94483.16;5072896;28;19924;-76
2023/12/02 03:06:11;;;;;;;;;;;;;;;-5.19;64.81;94485.16;5073945;28;19948;-77
2023/12/02 03:08:36;;;;;;;;;;;;;;;-5.03;58.46;94487.47;5060107;28;19967;-77
2023/12/02 03:11:01;;;;;;;;;;;;;;;-6.34;53.14;94490.31;5048461;28;20557;-77
2023/12/02 03:13:27;;;;;;;;;;;;;;;-7.43;56.15;94498.00;5058728;28;19924;-74
2023/12/02 03:15:52;;;;;;;;;;;;;;;-5.73;68.03;94490.56;5058887;28;19959;-75
2023/12/02 03:18:17;;;;;;;;;;;;;;;-5.10;61.17;94487.09;5075009;28;19924;-76
2023/12/02 03:20:43;;;;;;;;;;;;;;;-5.08;55.34;94487.84;5058232;28;20042;-77
2023/12/02 03:23:08;;;;;;;;;;;;;;;-6.25;67.71;94487.94;5067965;28;20425;-75
2023/12/02 03:25:33;;;;;;;;;;;;;;;-6.76;63.81;94497.25;5059034;28;19963;-76
2023/12/02 03:27:58;;;;;;;;;;;;;;;-6.13;54.33;94488.91;5067195;28;19931;-76
2023/12/02 03:30:24;;;;;;;;;;;;;;;-6.05;54.15;94479.78;5057556;28;19927;-75
2023/12/02 03:32:49;;;;;;;;;;;;;;;-5.15;68.52;94486.59;5069514;28;20445;-77
2023/12/02 03:35:15;;;;;;;;;;;;;;;-4.61;68.03;94488.88;5068430;28;19920;-76
2023/12/02 03:37:40;;;;;;;;;;;;;;;-5.60;60.91;94490.53;5067021;28;19926;-76
2023/12/02 03:40:06;;;;;;;;;;;;;;;-5.11;64.04;94482.00;5072632;28;19920;-77
2023/12/02 03:42:31;;;;;;;;;;;;;;;-4.49;67.97;94480.19;5074214;28;20304;-77
2023/12/02 03:44:56;;;;;;;;;;;;;;;-5.02;51.80;94488.31;5073242;28;20329;-77
2023/12/02 03:47:22;;;;;;;;;;;;;;;-5.29;64.50;94481.56;5071796;28;19924;-77
2023/12/02 03:49:47;;;;;;;;;;;;;;;-5.16;55.67;94490.16;5057260;28;20407;-77
2023/12/02 03:52:12;;;;;;;;;;;;;;;-5.91;64.27;94492.63;5072159;28;20857;-76
2023/12/02 03:54:38;;;;;;;;;;;;;;;-6.51;57.21;94492.25;5068607;28;19924;-77
2023/12/02 03:57:03;;;;;;;;;;;;;;;-7.09;61.31;94501.06;5058991;28;20011;-77
2023/12/02 03:59:28;;;;;;;;;;;;;;;-6.05;66.62;94510.88;5062161;28;19924;-77
2023/12/02 04:01:54;;;;;;;;;;;;;;;-6.23;54.99;94505.97;5056088;28;19925;-76
2023/12/02 04:04:20;;;;;;;;;;;;;;;-7.23;59.06;94507.13;5074260;28;19983;-76
2023/12/02 04:06:45;;;;;;;;;;;;;;;-6.62;57.35;94519.66;5056931;28;19924;-76
2023/12/02 04:09:11;;;;;;;;;;;;;;;-6.97;60.54;94512.38;5072861;28;19963;-76
2023/12/02 04:11:36;;;;;;;;;;;;;;;-8.61;63.38;94523.78;5063005;28;20000;-74
2023/12/02 04:14:01;;;;;;;;;;;;;;;-10.05;62.85;94522.81;5051971;28;20038;-74
2023/12/02 04:16:27;;;;;;;;;;;;;;;-10.52;66.29;94531.13;5061805;28;19928;-77
2023/12/02 04:18:52;;;;;;;;;;;;;;;-10.16;63.14;94533.69;5081928;28;19924;-79
2023/12/02 04:21:17;;;;;;;;;;;;;;;-8.91;63.81;94532.34;5072081;28;19931;-76
2023/12/02 04:23:43;;;;;;;;;;;;;;;-9.31;73.69;94543.94;5073774;28;19930;-78
2023/12/02 04:26:08;;;;;;;;;;;;;;;-9.54;62.71;94543.41;5067047;28;19917;-77
2023/12/02 04:28:33;;;;;;;;;;;;;;;-7.24;73.93;94531.31;5069466;28;19920;-76
2023/12/02 04:30:59;;;;;;;;;;;;;;;-6.62;66.18;94532.63;5066651;28;19924;-79
2023/12/02 04:33:24;;;;;;;;;;;;;;;-6.66;64.59;94528.56;5063397;28;19931;-77
2023/12/02 04:35:49;;;;;;;;;;;;;;;-7.91;57.73;94538.72;5065348;28;19920;-79
2023/12/02 04:38:14;;;;;;;;;;;;;;;-7.53;59.64;94539.09;5084918;28;19916;-78
2023/12/02 04:40:40;;;;;;;;;;;;;;;-6.02;72.47;94540.00;5072187;28;19971;-78
2023/12/02 04:43:06;;;;;;;;;;;;;;;-5.97;60.39;94539.72;5066717;28;19978;-77
2023/12/02 04:45:31;;;;;;;;;;;;;;;-5.87;58.12;94545.91;5071686;28;20146;-78
2023/12/02 04:47:56;;;;;;;;;;;;;;;-7.14;53.71;94550.50;5071348;28;20116;-77
2023/12/02 04:50:22;;;;;;;;;;;;;;;-6.98;57.12;94554.75;5081416;28;20363;-80
2023/12/02 04:52:47;;;;;;;;;;;;;;;-7.19;59.71;94554.31;5083265;28;19919;-77
2023/12/02 04:55:12;;;;;;;;;;;;;;;-6.99;57.09;94553.09;5082455;28;19926;-78
2023/12/02 04:57:38;;;;;;;;;;;;;;;-7.10;54.84;94553.72;5065415;28;19924;-79
2023/12/02 05:00:13;;;;;;;;;;;;;;;-6.23;63.62;94552.63;5074172;28;19928;-78
2023/12/02 05:02:40;;;;;;;;;;;;;;;-7.35;60.50;94562.16;5076449;28;20007;-78
2023/12/02 05:05:05;;;;;;;;;;;;;;;-8.64;59.34;94563.53;5069269;28;19923;-79
2023/12/02 05:07:30;;;;;;;;;;;;;;;-7.04;72.14;94568.88;5067574;28;20135;-78
2023/12/02 05:09:55;;;;;;;;;;;;;;;-5.89;73.15;94562.50;5064731;28;20025;-77
2023/12/02 05:12:21;;;;;;;;;;;;;;;-5.35;66.06;94568.44;5063660;28;20483;-78
2023/12/02 05:14:46;;;;;;;;;;;;;;;-5.74;52.34;94560.69;5070209;28;19959;-77
2023/12/02 05:17:11;;;;;;;;;;;;;;;-7.88;53.78;94570.47;5073612;28;20552;-78
2023/12/02 05:19:37;;;;;;;;;;;;;;;-6.17;67.74;94575.56;5071891;28;19922;-78
2023/12/02 05:22:02;;;;;;;;;;;;;;;-7.47;56.17;94580.13;5071037;28;19973;-77
2023/12/02 05:24:27;;;;;;;;;;;;;;;-7.11;63.48;94577.13;5076355;28;20510;-77
2023/12/02 05:26:52;;;;;;;;;;;;;;;-5.87;69.44;94582.22;5065875;28;19916;-80
2023/12/02 05:29:17;;;;;;;;;;;;;;;-5.89;68.68;94573.72;5066871;28;19968;-77
2023/12/02 05:31:43;;;;;;;;;;;;;;;-5.23;69.22;94590.94;5053993;28;19921;-75
2023/12/02 05:34:08;;;;;;;;;;;;;;;-4.77;70.82;94590.44;5062101;28;20015;-75
2023/12/02 05:36:33;;;;;;;;;;;;;;;-4.57;66.71;94589.03;5055362;28;19955;-77
2023/12/02 05:38:58;;;;;;;;;;;;;;;-4.39;68.60;94586.88;5060789;28;19932;-75
2023/12/02 05:41:24;;;;;;;;;;;;;;;-4.28;67.47;94586.09;5054207;28;20577;-76
2023/12/02 05:43:49;;;;;;;;;;;;;;;-4.57;64.28;94584.69;5059270;28;19924;-77
2023/12/02 05:46:15;;;;;;;;;;;;;;;-4.50;52.67;94581.63;5056687;28;19916;-77
2023/12/02 05:48:40;;;;;;;;;;;;;;;-4.37;62.23;94587.63;5057233;28;19919;-76
2023/12/02 05:51:06;;;;;;;;;;;;;;;-4.23;68.33;94589.22;5068753;28;19920;-76
2023/12/02 05:53:31;;;;;;;;;;;;;;;-4.31;62.35;94592.34;5082978;28;20015;-77
2023/12/02 05:55:57;;;;;;;;;;;;;;;-4.30;64.19;94588.00;5070734;28;19925;-74
2023/12/02 05:58:22;;;;;;;;;;;;;;;-4.40;65.29;94602.59;5056972;28;19920;-75
2023/12/02 06:00:48;;;;;;;;;;;;;;;-4.76;64.78;94611.13;5071591;28;20450;-77
2023/12/02 06:03:13;;;;;;;;;;;;;;;-5.74;64.13;94607.34;5069414;28;20622;-77
2023/12/02 06:05:38;;;;;;;;;;;;;;;-5.77;64.12;94607.56;5073449;28;19920;-76
2023/12/02 06:08:04;;;;;;;;;;;;;;;-5.21;62.49;94609.84;5072566;28;19942;-77
2023/12/02 06:10:29;;;;;;;;;;;;;;;-4.95;57.84;94606.38;5064814;28;19956;-77
2023/12/02 06:12:54;;;;;;;;;;;;;;;-5.10;59.41;94606.50;5066462;28;19923;-77
2023/12/02 06:15:20;;;;;;;;;;;;;;;-4.97;65.37;94616.88;5057991;28;20529;-75
2023/12/02 06:17:45;;;;;;;;;;;;;;;-5.36;53.99;94613.50;5066429;28;19923;-76
2023/12/02 06:20:11;;;;;;;;;;;;;;;-6.01;51.47;94616.03;5074168;28;20494;-76
2023/12/02 06:22:36;;;;;;;;;;;;;;;-5.92;54.40;94620.59;5063360;28;20022;-77
2023/12/02 06:25:02;;;;;;;;;;;;;;;-5.33;58.81;94621.06;5066562;28;20623;-77
2023/12/02 06:27:27;;;;;;;;;;;;;;;-5.76;54.24;94623.00;5068058;28;19931;-77
2023/12/02 06:29:52;;;;;;;;;;;;;;;-6.97;63.38;94639.22;5056440;28;20262;-76
2023/12/02 06:32:18;;;;;;;;;;;;;;;-6.01;62.03;94631.56;5060103;28;20503;-77
2023/12/02 06:34:44;;;;;;;;;;;;;;;-6.72;59.08;94648.06;5059875;28;19932;-76
2023/12/02 06:37:09;;;;;;;;;;;;;;;-6.28;68.27;94646.19;5059906;28;20471;-74
2023/12/02 06:39:34;;;;;;;;;;;;;;;-5.61;67.70;94643.66;5065436;28;19980;-75
2023/12/02 06:41:59;;;;;;;;;;;;;;;-5.05;66.90;94641.72;5069732;28;19927;-75
2023/12/02 06:44:25;;;;;;;;;;;;;;;-4.80;64.82;94643.44;5060233;28;19970;-76
2023/12/02 06:46:51;;;;;;;;;;;;;;;-4.61;64.48;94645.59;5063525;28;20381;-74
2023/12/02 06:49:16;;;;;;;;;;;;;;;-4.58;61.91;94647.16;5060935;28;19950;-75
2023/12/02 06:51:41;;;;;;;;;;;;;;;-5.33;52.00;94647.84;5062277;28;20557;-74
2023/12/02 06:54:07;;;;;;;;;;;;;;;-6.82;52.74;94652.16;5067666;28;19978;-76
2023/12/02 06:56:32;;;;;;;;;;;;;;;-5.65;68.65;94653.41;5063495;28;20665;-75
2023/12/02 06:58:58;;;;;;;;;;;;;;;-5.09;69.16;94654.06;5067674;28;19977;-76
2023/12/02 07:01:24;;;;;;;;;;;;;;;-4.87;63.98;94650.81;5066111;28;19931;-75
2023/12/02 07:03:49;;;;;;;;;;;;;;;-4.66;63.89;94655.47;5064382;28;19930;-75
2023/12/02 07:06:15;;;;;;;;;;;;;;;-4.53;66.13;94672.78;5058664;28;19924;-75
2023/12/02 07:08:40;;;;;;;;;;;;;;;-4.46;66.56;94671.41;5067823;28;20393;-75
2023/12/02 07:11:06;;;;;;;;;;;;;;;-4.51;61.59;94679.56;5055810;28;19921;-76
2023/12/02 07:13:31;;;;;;;;;;;;;;;-4.19;68.02;94680.78;5074485;28;19934;-75
2023/12/02 07:15:56;;;;;;;;;;;;;;;-4.12;65.72;94682.03;5067578;28;19974;-75
2023/12/02 07:18:21;;;;;;;;;;;;;;;-4.43;64.51;94698.03;5065528;28;20437;-77
2023/12/02 07:20:47;;;;;;;;;;;;;;;-5.12;58.55;94693.22;5067539;28;20005;-75
2023/12/02 07:23:12;;;;;;;;;;;;;;;-4.47;67.55;94701.78;5070057;28;19935;-75
2023/12/02 07:25:37;;;;;;;;;;;;;;;-4.15;68.08;94708.25;5069016;28;20684;-75
2023/12/02 07:28:03;;;;;;;;;;;;;;;-4.40;54.40;94707.38;5072555;28;19959;-75
2023/12/02 07:30:28;;;;;;;;;;;;;;;-4.09;67.63;94718.22;5068677;28;19927;-75
2023/12/02 07:32:53;;;;;;;;;;;;;;;-3.96;64.47;94715.56;5064957;28;20613;-76
2023/12/02 07:35:19;;;;;;;;;;;;;;;-4.00;58.00;94718.50;5058188;28;19939;-73
2023/12/02 07:37:47;;;;;;;;;;;;;;;-3.92;59.44;94710.97;5054228;28;20034;-76
2023/12/02 07:40:12;;;;;;;;;;;;;;;-3.78;67.10;94729.03;5077099;28;20039;-77
2023/12/02 07:42:38;;;;;;;;;;;;;;;-4.97;49.89;94725.94;5070897;28;20154;-76
2023/12/02 07:45:05;;;;;;;;;;;;;;;-5.66;53.22;94718.34;5081651;28;20265;-76
2023/12/02 07:47:30;;;;;;;;;;;;;;;-6.40;54.23;94722.94;5070293;28;19931;-76
2023/12/02 07:49:55;;;;;;;;;;;;;;;-5.37;59.61;94716.44;5059261;28;19969;-76
2023/12/02 07:52:21;;;;;;;;;;;;;;;-6.04;52.76;94730.25;5062094;28;19924;-78
2023/12/02 07:54:46;;;;;;;;;;;;;;;-6.07;54.44;94736.47;5073492;28;20004;-77
2023/12/02 07:57:11;;;;;;;;;;;;;;;-6.32;57.76;94734.59;5066503;28;20451;-77
2023/12/02 07:59:36;;;;;;;;;;;;;;;-5.54;58.89;94734.91;5071413;28;20640;-76
2023/12/02 08:02:02;;;;;;;;;;;;;;;-5.26;60.67;94735.69;5068673;28;19984;-76
2023/12/02 08:04:27;;;;;;;;;;;;;;;-5.37;52.77;94734.59;5052753;28;19924;-76
2023/12/02 08:06:52;;;;;;;;;;;;;;;-4.95;60.07;94738.81;5057313;28;19928;-76
2023/12/02 08:09:17;;;;;;;;;;;;;;;-5.97;50.66;94739.31;5063993;28;19923;-76
2023/12/02 08:11:43;;;;;;;;;;;;;;;-6.09;54.02;94746.09;5065084;28;20599;-76
2023/12/02 08:14:08;;;;;;;;;;;;;;;-5.31;66.71;94750.72;5071912;28;20024;-77
2023/12/02 08:16:33;;;;;;;;;;;;;;;-5.00;57.82;94748.69;5055980;28;19932;-76
2023/12/02 08:18:58;;;;;;;;;;;;;;;-5.00;58.59;94751.28;5070915;28;19924;-77
2023/12/02 08:21:24;;;;;;;;;;;;;;;-4.51;60.18;94760.09;5056349;28;20148;-77
2023/12/02 08:23:49;;;;;;;;;;;;;;;-4.30;60.98;94759.56;5066074;28;19994;-77
2023/12/02 08:26:15;;;;;;;;;;;;;;;-3.79;66.46;94768.16;5057106;28;19924;-76
2023/12/02 08:28:40;;;;;;;;;;;;;;;-3.38;67.43;94779.09;5062162;28;19993;-77
2023/12/02 08:31:05;;;;;;;;;;;;;;;-3.19;64.79;94770.75;5058788;28;19981;-77
2023/12/02 08:33:30;;;;;;;;;;;;;;;-3.79;58.33;94776.78;5058954;28;19959;-76
2023/12/02 08:35:56;;;;;;;;;;;;;;;-3.41;66.30;94782.78;5065424;28;20360;-77
2023/12/02 08:38:21;;;;;;;;;;;;;;;-3.25;59.54;94784.25;5074171;28;19932;-77
2023/12/02 08:40:49;;;;;;;;;;;;;;;-2.95;64.93;94782.91;5059866;28;19942;-76
2023/12/02 08:43:14;;;;;;;;;;;;;;;-3.58;54.49;94793.56;5064879;28;20649;-76
2023/12/02 08:45:39;;;;;;;;;;;;;;;-3.63;50.18;94788.72;5058180;28;19920;-76
2023/12/02 08:48:05;;;;;;;;;;;;;;;-3.96;55.45;94795.34;5063047;28;20485;-77
2023/12/02 08:50:30;;;;;;;;;;;;;;;-3.61;57.13;94799.81;5073811;28;19998;-76
2023/12/02 08:52:55;;;;;;;;;;;;;;;-4.67;52.45;94801.88;5077337;28;19916;-76
2023/12/02 08:55:20;;;;;;;;;;;;;;;-6.45;54.82;94807.88;5082349;28;19928;-77
2023/12/02 08:57:46;;;;;;;;;;;;;;;-5.35;61.22;94804.56;5059316;28;19931;-76
2023/12/02 09:00:11;;;;;;;;;;;;;;;-7.03;51.95;94811.22;5075675;28;19915;-77
2023/12/02 09:02:36;;;;;;;;;;;;;;;-7.65;55.04;94812.97;5090345;28;20011;-78
2023/12/02 09:05:02;;;;;;;;;;;;;;;-5.13;55.83;94816.97;5082854;28;19920;-78
2023/12/02 09:07:27;;;;;;;;;;;;;;;-4.90;59.34;94803.44;5092984;28;19952;-77
2023/12/02 09:09:53;;;;;;;;;;;;;;;-5.05;58.67;94802.66;5111791;28;20220;-77
2023/12/02 09:12:18;;;;;;;;;;;;;;;-5.62;51.31;94800.22;5075339;28;20042;-78
2023/12/02 09:14:43;;;;;;;;;;;;;;;-7.96;59.31;94819.81;5076947;28;19976;-77
2023/12/02 09:17:29;;;;;;;;;;;;;;;-6.00;62.41;94812.09;5095193;28;19950;-79
2023/12/02 09:19:54;;;;;;;;;;;;;;;-5.26;60.47;94810.94;5081312;28;19984;-77
2023/12/02 09:22:24;;;;;;;;;;;;;;;-4.47;61.78;94810.09;5081351;28;20023;-78
2023/12/02 09:24:50;;;;;;;;;;;;;;;-4.70;56.86;94815.91;5073520;28;19933;-79
2023/12/02 09:27:35;;;;;;;;;;;;;;;-4.68;49.59;94813.22;5080178;28;19957;-78
2023/12/02 09:30:01;;;;;;;;;;;;;;;-4.89;59.69;94816.28;5077726;28;20447;-77
2023/12/02 09:32:44;;;;;;;;;;;;;;;-5.15;52.45;94820.63;5052471;28;20074;-77
2023/12/02 09:35:09;;;;;;;;;;;;;;;-5.73;54.79;94824.25;5064404;28;20521;-77
2023/12/02 09:37:37;;;;;;;;;;;;;;;-6.14;51.64;94828.50;5062469;28;20345;-77
2023/12/02 09:40:18;;;;;;;;;;;;;;;-6.45;66.30;94827.75;5082254;28;19985;-77
2023/12/02 09:42:43;;;;;;;;;;;;;;;-7.83;55.62;94832.91;5055096;28;20450;-77
2023/12/02 09:45:08;;;;;;;;;;;;;;;-7.87;65.69;94833.16;5077561;28;20134;-76
2023/12/02 09:47:36;;;;;;;;;;;;;;;-8.05;56.00;94835.84;5078216;28;19959;-76
2023/12/02 09:50:07;;;;;;;;;;;;;;;-7.54;59.49;94829.66;5063640;28;20411;-76
2023/12/02 09:52:38;;;;;;;;;;;;;;;-5.40;58.73;94828.22;5077678;28;19963;-76
2023/12/02 09:55:15;;;;;;;;;;;;;;;-5.89;52.79;94821.78;5072962;28;20419;-76
2023/12/02 09:57:48;;;;;;;;;;;;;;;-6.25;52.73;94829.16;5077484;28;19939;-76
2023/12/02 10:00:21;;;;;;;;;;;;;;;-6.34;63.44;94838.31;5069791;28;19971;-76
2023/12/02 10:02:53;;;;;;;;;;;;;;;-4.38;55.95;94829.44;5050802;28;19985;-76
2023/12/02 10:05:19;;;;;;;;;;;;;;;-4.79;58.07;94831.28;5071635;28;19973;-76
2023/12/02 10:07:47;;;;;;;;;;;;;;;-4.12;49.77;94829.38;5076361;28;19931;-76
2023/12/02 10:10:15;;;;;;;;;;;;;;;-5.93;52.38;94844.50;5080555;28;19969;-76
2023/12/02 10:12:46;;;;;;;;;;;;;;;-5.82;58.98;94840.41;5056325;28;19962;-76
2023/12/02 10:15:11;;;;;;;;;;;;;;;-5.62;52.17;94844.31;5076065;28;19923;-76
2023/12/02 10:17:40;;;;;;;;;;;;;;;-6.01;67.46;94850.13;5090234;28;20610;-76
2023/12/02 10:20:09;;;;;;;;;;;;;;;-4.30;57.37;94840.97;5074766;28;19931;-76
2023/12/02 10:22:36;;;;;;;;;;;;;;;-3.74;60.01;94841.50;5074147;28;19936;-76
2023/12/02 10:25:05;;;;;;;;;;;;;;;-3.74;56.86;94846.69;5073719;28;20134;-76
2023/12/02 10:27:33;;;;;;;;;;;;;;;-4.09;56.02;94842.19;5073721;28;20550;-76
2023/12/02 10:29:58;;;;;;;;;;;;;;;-4.49;54.88;94848.34;5055653;28;19952;-76
2023/12/02 10:32:27;;;;;;;;;;;;;;;-4.23;55.22;94849.19;5090518;28;20350;-76
2023/12/02 10:34:52;;;;;;;;;;;;;;;-4.71;49.85;94854.97;5072468;28;19958;-76
2023/12/02 10:37:17;;;;;;;;;;;;;;;-5.40;52.58;94848.97;5075772;28;20631;-76
2023/12/02 10:39:43;;;;;;;;;;;;;;;-5.75;53.40;94845.09;5074043;28;19974;-76
2023/12/02 10:42:21;;;;;;;;;;;;;;;-6.02;51.18;94850.22;5081985;28;19966;-76
2023/12/02 10:44:47;;;;;;;;;;;;;;;-8.00;57.38;94848.50;5073505;28;20551;-76
2023/12/02 10:47:12;;;;;;;;;;;;;;;-5.45;53.57;94843.25;5073686;28;20112;-76
2023/12/02 10:49:37;;;;;;;;;;;;;;;-5.81;52.14;94836.88;5075918;28;20324;-76
2023/12/02 10:52:03;;;;;;;;;;;;;;;-5.01;58.38;94837.88;5055226;28;19957;-76
2023/12/02 10:54:29;;;;;;;;;;;;;;;-5.90;62.58;94835.69;5037208;28;19931;-76
2023/12/02 10:57:01;;;;;;;;;;;;;;;-7.59;55.47;94839.41;5043102;28;19929;-76
2023/12/02 10:59:27;;;;;;;;;;;;;;;-8.49;61.65;94853.59;5037821;28;19960;-76
2023/12/02 11:02:01;;;;;;;;;;;;;;;-8.43;63.07;94855.84;5064425;28;20026;-77
2023/12/02 11:04:31;;;;;;;;;;;;;;;-9.32;62.28;94861.97;5061737;28;19957;-77
2023/12/02 11:07:05;;;;;;;;;;;;;;;-7.62;60.47;94852.50;5066890;28;19958;-77
2023/12/02 11:09:35;;;;;;;;;;;;;;;-8.90;62.42;94859.13;5063602;28;19996;-77
2023/12/02 11:12:10;;;;;;;;;;;;;;;-7.31;71.22;94851.63;5074695;28;20031;-77
2023/12/02 11:14:39;;;;;;;;;;;;;;;-5.02;55.34;94836.22;5075126;28;19946;-79
2023/12/02 11:17:15;;;;;;;;;;;;;;;-7.46;64.41;94855.91;5072284;28;19932;-77
2023/12/02 11:19:44;;;;;;;;;;;;;;;-5.85;59.23;94844.84;5051667;28;20356;-76
2023/12/02 11:22:20;;;;;;;;;;;;;;;-6.12;65.05;94845.63;5040975;28;19964;-76
2023/12/02 11:25:04;;;;;;;;;;;;;;;-5.93;51.55;94833.28;5041032;28;20576;-75
2023/12/02 11:27:29;;;;;;;;;;;;;;;-5.63;52.60;94838.31;5047372;28;20465;-76
2023/12/02 11:30:05;;;;;;;;;;;;;;;-7.53;61.28;94845.09;5037678;28;19955;-75
2023/12/02 11:32:31;;;;;;;;;;;;;;;-7.52;59.44;94845.91;5071187;28;19963;-75
2023/12/02 11:34:59;;;;;;;;;;;;;;;-8.38;58.64;94849.59;5063950;28;20685;-76
2023/12/02 11:37:45;;;;;;;;;;;;;;;-8.31;59.44;94854.38;5075619;28;19941;-75
2023/12/02 11:40:16;;;;;;;;;;;;;;;-6.02;55.95;94853.66;5065232;28;19920;-75
2023/12/02 11:42:47;;;;;;;;;;;;;;;-5.29;61.68;94860.44;5072846;28;19928;-76
2023/12/02 11:45:15;;;;;;;;;;;;;;;-4.84;62.94;94855.78;5069323;28;19920;-77
2023/12/02 11:47:55;;;;;;;;;;;;;;;-6.96;59.46;94871.25;5075551;28;20061;-76
2023/12/02 11:50:39;;;;;;;;;;;;;;;-4.36;49.60;94858.72;5063780;28;19916;-77
2023/12/02 11:53:09;;;;;;;;;;;;;;;-5.25;48.96;94869.69;5063070;28;19920;-76
2023/12/02 11:55:42;;;;;;;;;;;;;;;-3.90;49.53;94872.97;5075467;28;20026;-75
2023/12/02 11:58:11;;;;;;;;;;;;;;;-2.98;48.50;94871.72;5075328;28;20673;-77
2023/12/02 12:00:42;;;;;;;;;;;;;;;-5.56;53.20;94882.88;5055641;28;19960;-75
2023/12/02 12:03:17;;;;;;;;;;;;;;;-5.47;50.91;94884.88;5067372;28;19991;-75
2023/12/02 12:06:02;;;;;;;;;;;;;;;-5.52;62.66;94881.75;5063898;28;20847;-75
2023/12/02 12:08:31;;;;;;;;;;;;;;;-5.27;51.25;94882.78;5071987;28;20514;-75
2023/12/02 12:10:56;;;;;;;;;;;;;;;-5.64;53.18;94880.72;5072104;28;19927;-77
2023/12/02 12:13:22;;;;;;;;;;;;;;;-6.95;52.42;94906.56;5072168;28;19924;-75
2023/12/02 12:15:47;;;;;;;;;;;;;;;-5.12;59.69;94899.16;5065141;28;19988;-76
2023/12/02 12:18:13;;;;;;;;;;;;;;;-5.44;50.20;94898.59;5063748;28;20012;-76
2023/12/02 12:20:41;;;;;;;;;;;;;;;-4.73;47.56;94903.59;5066798;28;19934;-75
2023/12/02 12:23:07;;;;;;;;;;;;;;;-6.56;50.49;94908.72;5061928;28;19928;-75
2023/12/02 12:25:32;;;;;;;;;;;;;;;-4.44;62.36;94908.66;5054993;28;19977;-75
2023/12/02 12:28:03;;;;;;;;;;;;;;;-6.11;50.50;94917.25;5061966;28;19994;-75
2023/12/02 12:30:44;;;;;;;;;;;;;;;-3.63;58.15;94913.63;5062465;28;19916;-77
2023/12/02 12:33:11;;;;;;;;;;;;;;;-4.63;55.00;94924.59;5075543;28;19924;-76
2023/12/02 12:35:37;;;;;;;;;;;;;;;-2.74;46.50;94925.59;5064027;28;19955;-77
2023/12/02 12:38:02;;;;;;;;;;;;;;;-2.69;43.13;94920.03;5064409;28;20466;-78
2023/12/02 12:40:29;;;;;;;;;;;;;;;-2.53;55.57;94924.94;5054969;28;20011;-78
2023/12/02 12:42:54;;;;;;;;;;;;;;;-2.06;54.95;94924.94;5057136;28;19928;-77